マレ の空港の天気 - METARとTAF

マレ国際空港 ( VRMM / MLE ) - モルディブ Hulhule Island, North Male Atoll
飛行場実況気象(Metar)
観測時間04/26 15:00 MVT (04/26 10:00 UTC)
風向・風速北西 4m/s
視程10km以上
天気現象
全天の4割程度の雲 雲底高度 550m
全天の8割程度の雲 雲底高度 8530m
気温32℃
湿度71%
気圧1006hPa
METARVRMM 261000Z 31007KT 9999 SCT018 BKN280 32/26 Q1006 TEMPO FEW018CB
過去の天気等 Google飛行場航空写真 Wunderground天気予報

過去48時間のMETAR

飛行場予報(TAF)
発表時間: 4/26 10:00 MVT (4/26 05:00 UTC)
予報対象時間: 26日11時 MVT ~ 27日17時 MVT
風向・風速西北西 5m/s
視程10km以上
少しの雲 雲底高度 550m
26日15時 MVT ~ 26日21時 MVT に一時的に
視程5,000m
天気現象弱い雷雨
少しの積乱雲 雲底高度 550m
TAF VRMM 260500Z 2606/2712 29010KT 9999 FEW018
TEMPO 2610/2616 5000 -TSRA FEW018CB